Time;durP1;ratioP1;P1;durP2;ratioP2;P2;SDS_P1;SDS_P2;PMS_P1;PMS_P2;Temp;Humidity;BMP_temperature;BMP_pressure;BME280_temperature;BME280_humidity;BME280_pressure;Samples;Min_cycle;Max_cycle;Signal;HPM_P1;HPM_P2
2021/08/23 00:00:36;;;;;;;3.30;2.00;;;;;;;21.86;66.20;101743.06;5032752;28;20025;-60
2021/08/23 00:03:03;;;;;;;4.38;2.30;;;;;;;21.86;66.21;101740.41;5031606;28;20040;-60
2021/08/23 00:05:28;;;;;;;4.90;2.40;;;;;;;21.77;66.01;101736.69;5033193;28;20464;-61
2021/08/23 00:07:53;;;;;;;4.77;2.20;;;;;;;21.84;65.86;101742.34;5032135;28;20056;-60
2021/08/23 00:10:19;;;;;;;4.97;2.47;;;;;;;21.83;65.94;101744.16;5031615;28;20270;-60
2021/08/23 00:12:45;;;;;;;5.03;2.63;;;;;;;21.84;65.98;101745.84;5032140;28;20282;-60
2021/08/23 00:15:10;;;;;;;4.40;2.40;;;;;;;21.84;65.91;101752.94;5032649;28;20029;-60
2021/08/23 00:17:36;;;;;;;4.80;2.22;;;;;;;21.83;66.14;101749.47;5031889;28;20100;-60
2021/08/23 00:20:03;;;;;;;5.20;2.25;;;;;;;21.82;66.18;101747.75;5031788;28;20032;-59
2021/08/23 00:22:32;;;;;;;4.28;2.30;;;;;;;21.82;65.75;101753.06;5032224;28;20033;-60
2021/08/23 00:25:00;;;;;;;3.90;2.28;;;;;;;21.83;65.82;101756.59;5030972;28;20422;-60
2021/08/23 00:27:27;;;;;;;5.90;2.45;;;;;;;21.79;65.91;101750.66;5032461;28;20025;-61
2021/08/23 00:29:52;;;;;;;4.50;2.20;;;;;;;21.82;65.84;101761.03;5031707;28;20048;-60
2021/08/23 00:32:18;;;;;;;5.40;2.05;;;;;;;21.81;65.96;101753.19;5031697;28;20038;-60
2021/08/23 00:34:43;;;;;;;4.00;2.50;;;;;;;21.81;66.04;101756.72;5032018;28;20473;-60
2021/08/23 00:37:10;;;;;;;4.55;2.30;;;;;;;21.79;65.84;101752.50;5031401;28;20025;-61
2021/08/23 00:39:37;;;;;;;4.82;2.78;;;;;;;21.80;65.97;101757.66;5032025;28;20031;-60
2021/08/23 00:42:06;;;;;;;3.95;2.13;;;;;;;21.78;65.43;101754.31;5031932;28;20084;-60
2021/08/23 00:44:36;;;;;;;3.67;2.10;;;;;;;21.80;66.03;101759.50;5031438;28;20049;-60
2021/08/23 00:47:02;;;;;;;4.80;2.47;;;;;;;21.79;65.97;101755.97;5031698;28;20033;-60
2021/08/23 00:49:29;;;;;;;4.28;2.17;;;;;;;21.80;65.95;101759.50;5032000;28;20159;-60
2021/08/23 00:51:55;;;;;;;3.13;1.90;;;;;;;21.79;65.86;101757.78;5030722;28;20120;-61
2021/08/23 00:54:20;;;;;;;4.72;2.17;;;;;;;21.78;65.72;101756.97;5032027;28;20048;-61
2021/08/23 00:56:47;;;;;;;4.38;2.70;;;;;;;21.78;65.69;101762.28;5033988;28;20030;-60
2021/08/23 00:59:12;;;;;;;4.30;2.05;;;;;;;21.78;65.64;101758.75;5035097;28;20113;-60
2021/08/23 01:01:49;;;;;;;3.58;2.03;;;;;;;21.78;65.80;101770.22;5035805;28;20123;-60
2021/08/23 01:04:30;;;;;;;5.40;2.10;;;;;;;21.78;65.62;101758.75;5035733;28;20025;-61
2021/08/23 01:06:57;;;;;;;3.80;2.15;;;;;;;21.77;65.62;101757.09;5034665;28;20481;-60
2021/08/23 01:09:27;;;;;;;4.30;2.33;;;;;;;21.77;65.65;101767.69;5035750;28;20084;-61
2021/08/23 01:11:55;;;;;;;4.47;2.20;;;;;;;21.76;66.09;101761.53;5035274;28;20101;-60
2021/08/23 01:14:26;;;;;;;3.65;2.00;;;;;;;21.76;65.92;101772.16;5034707;28;20535;-61
2021/08/23 01:16:52;;;;;;;4.10;1.90;;;;;;;21.77;66.01;101767.69;5035025;28;20559;-60
2021/08/23 01:19:19;;;;;;;4.03;2.67;;;;;;;21.75;65.75;101770.47;5034368;28;20108;-61
2021/08/23 01:21:48;;;;;;;4.03;2.20;;;;;;;21.76;65.68;101771.31;5035155;28;20026;-61
2021/08/23 01:24:17;;;;;;;3.75;1.98;;;;;;;21.76;65.81;101774.78;5035211;28;20052;-61
2021/08/23 01:26:51;;;;;;;4.53;2.50;;;;;;;21.74;65.70;101780.22;5034574;28;20064;-61
2021/08/23 01:29:26;;;;;;;4.30;2.30;;;;;;;21.75;65.94;101783.75;5035209;28;20076;-61
2021/08/23 01:32:13;;;;;;;3.80;2.08;;;;;;;21.76;65.81;101788.06;5035082;28;20036;-60
2021/08/23 01:34:40;;;;;;;4.00;2.35;;;;;;;21.74;65.66;101788.19;5034288;28;20492;-61
2021/08/23 01:37:05;;;;;;;3.22;2.00;;;;;;;21.73;65.80;101789.19;5034839;28;20021;-61
2021/08/23 01:39:33;;;;;;;4.50;2.20;;;;;;;21.71;66.05;101788.47;5034960;28;20039;-61
2021/08/23 01:42:00;;;;;;;3.50;1.90;;;;;;;21.74;65.70;101798.81;5033513;28;20104;-61
2021/08/23 01:44:25;;;;;;;3.90;2.00;;;;;;;21.73;65.80;101805.09;5034574;28;20076;-60
2021/08/23 01:46:54;;;;;;;3.72;2.22;;;;;;;21.72;66.03;101802.56;5034137;28;20026;-60
2021/08/23 01:49:19;;;;;;;3.50;1.92;;;;;;;21.73;65.89;101813.06;5033500;28;20428;-59
2021/08/23 01:51:44;;;;;;;4.13;2.03;;;;;;;21.73;65.73;101812.22;5034094;28;20045;-59
2021/08/23 01:54:09;;;;;;;3.83;1.87;;;;;;;21.73;65.81;101817.53;5034737;28;20018;-60
2021/08/23 01:56:35;;;;;;;3.40;1.58;;;;;;;21.71;65.79;101817.66;5033764;28;20274;-60
2021/08/23 01:59:02;;;;;;;3.80;1.90;;;;;;;21.73;65.77;101833.44;5034402;28;20032;-60
2021/08/23 02:01:29;;;;;;;4.65;2.08;;;;;;;21.70;65.60;101823.91;5033857;28;20021;-60
2021/08/23 02:03:55;;;;;;;3.90;1.88;;;;;;;21.73;66.03;101828.13;5034458;28;20017;-60
2021/08/23 02:06:21;;;;;;;4.78;2.25;;;;;;;21.70;65.69;101845.13;5034560;28;20044;-61
2021/08/23 02:08:46;;;;;;;3.75;2.05;;;;;;;21.70;65.82;101845.13;5032328;28;20413;-60
2021/08/23 02:11:11;;;;;;;3.47;2.00;;;;;;;21.71;65.66;101852.13;5034321;28;20030;-60
2021/08/23 02:13:37;;;;;;;3.27;1.90;;;;;;;21.71;65.29;101852.13;5034566;28;20270;-60
2021/08/23 02:16:02;;;;;;;4.25;2.03;;;;;;;21.70;65.63;101850.44;5033361;28;21141;-60
2021/08/23 02:18:27;;;;;;;3.22;2.00;;;;;;;21.71;65.50;101856.59;5034093;28;20101;-59
2021/08/23 02:20:53;;;;;;;3.60;1.90;;;;;;;21.71;65.79;101857.44;5033965;28;20022;-60
2021/08/23 02:23:18;;;;;;;4.40;1.70;;;;;;;21.71;65.67;101864.53;5033372;28;20266;-60
2021/08/23 02:25:43;;;;;;;3.33;1.95;;;;;;;21.70;65.70;101858.41;5033711;28;20263;-61
2021/08/23 02:28:08;;;;;;;3.93;1.80;;;;;;;21.70;65.64;101869.00;5034272;28;20480;-60
2021/08/23 02:30:34;;;;;;;3.25;2.00;;;;;;;21.69;65.71;101877.94;5033554;28;20274;-60
2021/08/23 02:32:59;;;;;;;3.38;1.95;;;;;;;21.70;65.89;101876.97;5033904;28;20466;-60
2021/08/23 02:35:24;;;;;;;4.07;2.13;;;;;;;21.69;65.64;101885.88;5033969;28;20033;-60
2021/08/23 02:37:49;;;;;;;3.80;2.10;;;;;;;21.70;65.84;101889.41;5032773;28;20754;-60
2021/08/23 02:40:15;;;;;;;3.67;2.10;;;;;;;21.70;65.87;101887.59;5033813;28;20294;-61
2021/08/23 02:42:41;;;;;;;3.93;2.13;;;;;;;21.69;65.68;101887.72;5033710;28;20274;-60
2021/08/23 02:45:07;;;;;;;3.80;2.20;;;;;;;21.70;65.84;101897.38;5032956;28;20274;-60
2021/08/23 02:47:36;;;;;;;3.42;1.73;;;;;;;21.68;65.60;101897.50;5033672;28;20026;-60
2021/08/23 02:50:02;;;;;;;3.45;1.60;;;;;;;21.67;65.86;101895.78;5033100;28;20422;-60
2021/08/23 02:52:27;;;;;;;3.42;2.00;;;;;;;21.68;65.55;101899.28;5034813;28;20029;-59
2021/08/23 02:54:52;;;;;;;3.77;2.20;;;;;;;21.68;65.58;101896.63;5034793;28;20103;-60
2021/08/23 02:57:21;;;;;;;4.68;2.42;;;;;;;21.68;65.86;101909.88;5035213;28;20278;-61
2021/08/23 02:59:46;;;;;;;3.53;2.08;;;;;;;21.68;65.68;101909.88;5034447;28;20116;-60
2021/08/23 03:02:11;;;;;;;3.70;2.27;;;;;;;21.68;65.41;101917.84;5035407;28;20052;-60
2021/08/23 03:04:40;;;;;;;3.43;1.90;;;;;;;21.66;65.57;101914.47;5034573;28;20285;-61
2021/08/23 03:07:05;;;;;;;3.55;2.20;;;;;;;21.66;65.53;101920.63;5034226;28;20035;-61
2021/08/23 03:09:31;;;;;;;4.60;2.33;;;;;;;21.67;65.69;101921.47;5034641;28;20132;-60
2021/08/23 03:11:56;;;;;;;3.42;2.00;;;;;;;21.62;65.83;101913.88;5033151;28;20075;-60
2021/08/23 03:14:21;;;;;;;3.53;1.95;;;;;;;21.66;65.66;101936.53;5033555;28;20080;-61
2021/08/23 03:16:47;;;;;;;4.90;2.00;;;;;;;21.66;65.80;101930.41;5033116;28;20032;-61
2021/08/23 03:19:12;;;;;;;4.22;2.25;;;;;;;21.65;65.77;101934.88;5032331;28;20307;-60
2021/08/23 03:21:38;;;;;;;3.80;2.13;;;;;;;21.66;65.58;101933.06;5033348;28;20017;-60
2021/08/23 03:24:03;;;;;;;3.88;2.22;;;;;;;21.65;65.69;101944.63;5032632;28;20091;-60
2021/08/23 03:26:29;;;;;;;3.78;2.22;;;;;;;21.65;65.56;101945.47;5032242;28;20029;-59
2021/08/23 03:28:54;;;;;;;4.32;2.50;;;;;;;21.62;65.54;101944.84;5032881;28;20030;-60
2021/08/23 03:31:19;;;;;;;4.07;2.40;;;;;;;21.65;65.71;101948.13;5033042;28;20018;-61
2021/08/23 03:33:45;;;;;;;3.45;2.00;;;;;;;21.65;65.62;101952.56;5032080;28;20040;-61
2021/08/23 03:36:10;;;;;;;3.33;2.10;;;;;;;21.63;65.52;101960.66;5032895;28;20377;-60
2021/08/23 03:38:37;;;;;;;4.45;2.50;;;;;;;21.63;65.69;101958.00;5032987;28;20281;-60
2021/08/23 03:41:03;;;;;;;3.50;2.20;;;;;;;21.64;65.67;101965.00;5032061;28;20028;-60
2021/08/23 03:43:28;;;;;;;4.20;2.30;;;;;;;21.62;65.59;101963.41;5032946;28;20022;-60
2021/08/23 03:45:53;;;;;;;4.53;2.30;;;;;;;21.58;65.76;101960.19;5032376;28;20497;-61
2021/08/23 03:48:19;;;;;;;3.50;2.10;;;;;;;21.62;65.31;101963.41;5032026;28;20032;-60
2021/08/23 03:50:44;;;;;;;4.45;2.50;;;;;;;21.61;65.52;101982.97;5032361;28;20489;-60
2021/08/23 03:53:09;;;;;;;4.18;2.30;;;;;;;21.62;65.70;101985.50;5032640;28;20412;-60
2021/08/23 03:55:35;;;;;;;4.67;2.30;;;;;;;21.62;65.42;101992.59;5031840;28;20104;-60
2021/08/23 03:58:00;;;;;;;4.40;3.08;;;;;;;21.63;65.48;101991.66;5032408;28;20325;-60
2021/08/23 04:00:25;;;;;;;4.00;2.80;;;;;;;21.61;65.14;102001.53;5032481;28;20036;-60
2021/08/23 04:02:53;;;;;;;4.30;2.40;;;;;;;21.61;65.53;102002.38;5031587;28;20274;-60
2021/08/23 04:05:18;;;;;;;4.72;2.63;;;;;;;21.61;65.47;101998.88;5032429;28;20017;-61
2021/08/23 04:07:47;;;;;;;3.70;2.43;;;;;;;21.60;65.45;102002.50;5031896;28;20026;-60
2021/08/23 04:10:15;;;;;;;4.20;2.65;;;;;;;21.61;65.52;102006.84;5031569;28;20405;-59
2021/08/23 04:12:40;;;;;;;4.47;2.67;;;;;;;21.59;65.38;102006.97;5032463;28;20022;-60
2021/08/23 04:15:06;;;;;;;4.50;2.70;;;;;;;21.60;65.46;102005.97;5031341;28;20088;-61
2021/08/23 04:17:31;;;;;;;4.53;2.50;;;;;;;21.61;65.42;102009.50;5032326;28;20270;-60
2021/08/23 04:20:00;;;;;;;4.28;2.60;;;;;;;21.60;65.27;102013.94;5031923;28;20384;-60
2021/08/23 04:22:25;;;;;;;4.07;2.40;;;;;;;21.55;65.35;102005.50;5031359;28;20025;-60
2021/08/23 04:24:50;;;;;;;3.80;2.43;;;;;;;21.60;65.41;102018.41;5031769;28;20091;-60
2021/08/23 04:27:18;;;;;;;4.00;2.47;;;;;;;21.59;65.47;102025.53;5032259;28;20274;-60
2021/08/23 04:29:43;;;;;;;4.93;2.65;;;;;;;21.61;65.38;102028.06;5031078;28;20274;-60
2021/08/23 04:32:09;;;;;;;4.75;2.63;;;;;;;21.59;65.31;102022.00;5035386;28;20108;-60
2021/08/23 04:34:37;;;;;;;4.00;2.42;;;;;;;21.59;65.49;102028.19;5036280;28;20351;-60
2021/08/23 04:37:04;;;;;;;3.75;2.40;;;;;;;21.59;65.48;102035.28;5035103;28;20026;-60
2021/08/23 04:39:35;;;;;;;5.28;2.75;;;;;;;21.59;65.62;102036.16;5036385;28;20040;-60
2021/08/23 04:42:01;;;;;;;4.72;2.80;;;;;;;21.59;65.48;102043.25;5035859;28;20029;-61
2021/08/23 04:44:27;;;;;;;4.80;3.17;;;;;;;21.58;65.16;102044.22;5035246;28;20030;-60
2021/08/23 04:46:52;;;;;;;4.70;2.90;;;;;;;21.59;65.38;102045.88;5035707;28;20026;-60
2021/08/23 04:49:18;;;;;;;4.38;2.80;;;;;;;21.58;65.43;102044.22;5035903;28;20033;-61
2021/08/23 04:51:49;;;;;;;4.40;2.97;;;;;;;21.57;65.18;102046.03;5034641;28;20037;-60
2021/08/23 04:54:14;;;;;;;4.70;2.70;;;;;;;21.58;65.47;102057.47;5035676;28;20481;-59
2021/08/23 04:56:40;;;;;;;5.17;3.07;;;;;;;21.58;65.47;102054.84;5035911;28;20017;-59
2021/08/23 04:59:05;;;;;;;4.93;2.90;;;;;;;21.56;65.23;102063.75;5034757;28;20758;-61
2021/08/23 05:01:30;;;;;;;4.88;2.95;;;;;;;21.57;65.48;102061.97;5035641;28;20036;-60
2021/08/23 05:03:55;;;;;;;4.97;3.00;;;;;;;21.56;65.31;102071.69;5035418;28;20076;-60
2021/08/23 05:06:21;;;;;;;4.80;2.83;;;;;;;21.57;65.38;102080.53;5034781;28;20266;-60
2021/08/23 05:08:46;;;;;;;4.55;2.92;;;;;;;21.56;65.49;102078.81;5035465;28;20274;-60
2021/08/23 05:11:11;;;;;;;4.70;3.10;;;;;;;21.55;65.25;102077.13;5035671;28;20539;-60
2021/08/23 05:13:37;;;;;;;4.30;2.70;;;;;;;21.56;65.22;102084.13;5035024;28;20036;-61
2021/08/23 05:16:02;;;;;;;4.53;2.78;;;;;;;21.55;65.28;102085.06;5035176;28;20022;-61
2021/08/23 05:18:28;;;;;;;5.03;2.80;;;;;;;21.56;65.42;102092.09;5034477;28;20117;-60
2021/08/23 05:20:53;;;;;;;4.32;2.85;;;;;;;21.56;65.58;102089.44;5034900;28;20021;-59
2021/08/23 05:23:18;;;;;;;4.10;2.70;;;;;;;21.56;65.54;102098.22;5035458;28;20056;-59
2021/08/23 05:25:43;;;;;;;4.88;3.30;;;;;;;21.55;65.22;102093.91;5034152;28;20385;-60
2021/08/23 05:28:09;;;;;;;4.57;2.90;;;;;;;21.54;65.34;102102.81;5035595;28;20084;-60
2021/08/23 05:30:34;;;;;;;4.78;2.92;;;;;;;21.55;65.28;102101.00;5035200;28;20029;-60
2021/08/23 05:33:00;;;;;;;5.18;2.70;;;;;;;21.55;65.46;102098.34;5034116;28;20029;-60
2021/08/23 05:35:25;;;;;;;4.55;3.03;;;;;;;21.55;65.30;102109.81;5035043;28;20044;-60
2021/08/23 05:37:51;;;;;;;6.15;3.40;;;;;;;21.55;65.31;102111.59;5034933;28;20028;-60
2021/08/23 05:40:17;;;;;;;5.40;3.38;;;;;;;21.53;65.10;102114.38;5034179;28;20481;-60
2021/08/23 05:42:43;;;;;;;4.72;2.97;;;;;;;21.55;65.28;102116.91;5034941;28;20032;-60
2021/08/23 05:45:09;;;;;;;4.40;2.70;;;;;;;21.54;65.41;102116.06;5034911;28;20079;-60
2021/08/23 05:47:36;;;;;;;5.95;3.00;;;;;;;21.55;65.32;102119.56;5034217;28;20029;-60
2021/08/23 05:50:02;;;;;;;5.05;3.15;;;;;;;21.54;65.23;102129.34;5034377;28;20108;-61
2021/08/23 05:52:27;;;;;;;4.95;3.33;;;;;;;21.54;64.73;102131.16;5034666;28;20410;-61
2021/08/23 05:54:52;;;;;;;4.95;3.05;;;;;;;21.54;65.09;102133.81;5034008;28;20022;-61
2021/08/23 05:57:24;;;;;;;6.18;3.67;;;;;;;21.53;64.85;102132.94;5034690;28;20536;-60
2021/08/23 05:59:49;;;;;;;4.47;3.20;;;;;;;21.53;65.10;102135.59;5034305;28;20461;-60
2021/08/23 06:02:14;;;;;;;5.10;3.22;;;;;;;21.53;65.15;102138.25;5034057;28;20037;-60
2021/08/23 06:04:39;;;;;;;5.30;3.60;;;;;;;21.53;65.21;102140.91;5034447;28;20029;-61
2021/08/23 06:07:06;;;;;;;5.30;3.70;;;;;;;21.53;64.92;102148.00;5034459;28;20655;-61
2021/08/23 06:09:33;;;;;;;5.90;3.47;;;;;;;21.52;65.09;102149.84;5033853;28;20416;-61
2021/08/23 06:11:58;;;;;;;6.68;3.80;;;;;;;21.53;65.38;102153.31;5034308;28;20030;-59
2021/08/23 06:14:24;;;;;;;5.65;3.70;;;;;;;21.52;65.06;102159.56;5034238;28;20056;-60
2021/08/23 06:16:49;;;;;;;5.22;3.83;;;;;;;21.52;65.19;102159.56;5033343;28;20486;-60
2021/08/23 06:19:17;;;;;;;5.43;3.83;;;;;;;21.52;65.17;102156.91;5033981;28;20492;-59
2021/08/23 06:21:42;;;;;;;4.85;3.38;;;;;;;21.52;65.25;102159.56;5033588;28;20271;-59
2021/08/23 06:24:10;;;;;;;5.63;3.33;;;;;;;21.51;65.58;102156.09;5033753;28;20029;-60
2021/08/23 06:26:35;;;;;;;6.05;3.50;;;;;;;21.54;65.60;102163.81;5034084;28;20105;-61
2021/08/23 06:29:01;;;;;;;5.88;3.35;;;;;;;21.56;65.65;102166.34;5032975;28;20109;-60
2021/08/23 06:31:26;;;;;;;5.75;3.78;;;;;;;21.57;65.48;102160.09;5033911;28;20021;-61
2021/08/23 06:33:52;;;;;;;5.78;3.55;;;;;;;21.58;65.89;102169.72;5033569;28;20025;-60
2021/08/23 06:36:17;;;;;;;4.70;3.15;;;;;;;21.60;65.61;102169.63;5033700;28;20029;-60
2021/08/23 06:38:42;;;;;;;4.95;3.33;;;;;;;21.61;66.01;102171.31;5033766;28;20022;-60
2021/08/23 06:41:07;;;;;;;7.25;3.55;;;;;;;21.60;65.96;102175.75;5033554;28;20025;-61
2021/08/23 06:43:33;;;;;;;5.50;3.10;;;;;;;21.63;65.86;102180.81;5033050;28;20095;-62
2021/08/23 06:45:58;;;;;;;6.03;3.70;;;;;;;21.63;66.13;102175.53;5033425;28;20270;-63
2021/08/23 06:48:23;;;;;;;5.72;3.60;;;;;;;21.62;65.99;102178.28;5033577;28;20138;-60
2021/08/23 06:50:48;;;;;;;7.88;4.03;;;;;;;21.62;66.07;102180.94;5032583;28;20045;-61
2021/08/23 06:53:14;;;;;;;5.95;3.50;;;;;;;21.63;65.77;102186.13;5033324;28;20076;-60
2021/08/23 06:55:39;;;;;;;6.82;3.67;;;;;;;21.66;65.95;102187.72;5033371;28;20017;-61
2021/08/23 06:58:04;;;;;;;5.32;3.50;;;;;;;21.65;66.02;102189.53;5032612;28;20048;-61
2021/08/23 07:00:30;;;;;;;5.30;3.28;;;;;;;21.68;66.24;102196.41;5033280;28;20033;-60
2021/08/23 07:02:56;;;;;;;8.15;3.97;;;;;;;21.69;66.20;102192.81;5033154;28;20358;-59
2021/08/23 07:05:25;;;;;;;8.27;4.63;;;;;;;21.67;67.55;102197.38;5032686;28;20021;-60
2021/08/23 07:07:50;;;;;;;8.57;4.45;;;;;;;21.72;68.24;102201.38;5033353;28;20381;-59
2021/08/23 07:10:15;;;;;;;8.73;4.60;;;;;;;21.74;68.17;102203.91;5033896;28;20033;-60
2021/08/23 07:12:42;;;;;;;8.50;4.43;;;;;;;21.78;68.19;102201.84;5034197;28;20285;-60
2021/08/23 07:15:08;;;;;;;8.25;4.30;;;;;;;21.81;68.01;102210.47;5034899;28;20652;-59
2021/08/23 07:17:33;;;;;;;8.52;4.40;;;;;;;21.83;68.02;102203.22;5033835;28;20034;-62
2021/08/23 07:19:59;;;;;;;9.45;4.68;;;;;;;21.85;67.94;102214.53;5032299;28;20029;-61
2021/08/23 07:22:25;;;;;;;8.18;4.60;;;;;;;21.86;67.86;102212.75;5035261;28;20029;-62
2021/08/23 07:24:51;;;;;;;8.77;4.63;;;;;;;21.87;67.75;102214.44;5034993;28;20041;-61
2021/08/23 07:27:16;;;;;;;10.68;4.70;;;;;;;21.85;67.72;102211.06;5034220;28;20019;-63
2021/08/23 07:29:41;;;;;;;9.45;4.30;;;;;;;21.86;67.49;102208.28;5034130;28;20017;-64
2021/08/23 07:32:10;;;;;;;7.80;3.90;;;;;;;21.85;67.33;102209.25;5035368;28;20118;-63
2021/08/23 07:34:35;;;;;;;9.02;4.43;;;;;;;21.87;67.70;102212.66;5033989;28;20021;-64
2021/08/23 07:37:01;;;;;;;8.40;4.25;;;;;;;21.87;67.69;102217.09;5035714;28;20148;-63
2021/08/23 07:39:26;;;;;;;7.20;4.15;;;;;;;21.87;67.71;102220.63;5035077;28;20036;-63
2021/08/23 07:41:52;;;;;;;7.78;4.45;;;;;;;21.87;67.57;102220.63;5036180;28;20026;-63
2021/08/23 07:44:17;;;;;;;7.88;3.88;;;;;;;21.86;67.25;102226.03;5034623;28;20056;-63
2021/08/23 07:46:42;;;;;;;7.35;4.35;;;;;;;21.83;67.30;102227.09;5032300;28;20480;-63
2021/08/23 07:49:10;;;;;;;5.88;3.85;;;;;;;21.83;67.17;102232.41;5034363;28;20079;-63
2021/08/23 07:51:36;;;;;;;7.20;4.05;;;;;;;21.84;67.49;102228.81;5033433;28;20183;-63
2021/08/23 07:54:01;;;;;;;6.72;3.75;;;;;;;21.87;67.16;102233.88;5032560;28;20490;-63
2021/08/23 07:56:29;;;;;;;7.32;4.18;;;;;;;21.87;67.13;102231.22;5033892;28;20424;-64
2021/08/23 07:58:56;;;;;;;7.07;4.07;;;;;;;21.89;67.08;102236.41;5033039;28;20083;-64
2021/08/23 08:01:22;;;;;;;7.13;4.70;;;;;;;21.90;67.07;102240.75;5032632;28;20056;-64
2021/08/23 08:03:51;;;;;;;7.53;3.70;;;;;;;21.91;66.61;102242.44;5032900;28;20030;-62
2021/08/23 08:06:17;;;;;;;6.07;3.90;;;;;;;21.91;66.58;102242.44;5032689;28;20026;-63
2021/08/23 08:08:43;;;;;;;8.27;3.83;;;;;;;21.92;67.03;102249.44;5032460;28;20037;-62
2021/08/23 08:11:08;;;;;;;5.95;3.60;;;;;;;21.91;66.60;102245.94;5032828;28;20108;-62
2021/08/23 08:13:37;;;;;;;6.30;3.85;;;;;;;21.93;66.54;102251.97;5032899;28;20033;-63
2021/08/23 08:16:05;;;;;;;6.72;3.58;;;;;;;21.93;66.75;102254.63;5031554;28;20458;-59
2021/08/23 08:18:30;;;;;;;6.05;3.90;;;;;;;21.95;66.68;102258.97;5032435;28;20465;-61
2021/08/23 08:20:58;;;;;;;6.15;3.53;;;;;;;21.94;66.49;102252.84;5032637;28;20160;-63
2021/08/23 08:23:24;;;;;;;6.32;3.60;;;;;;;21.93;66.76;102259.94;5032273;28;20100;-63
2021/08/23 08:25:49;;;;;;;6.93;3.63;;;;;;;21.96;66.77;102261.50;5032497;28;20501;-63
2021/08/23 08:28:17;;;;;;;5.33;3.30;;;;;;;21.99;66.43;102263.09;5031738;28;20037;-64
2021/08/23 08:30:42;;;;;;;6.75;3.45;;;;;;;21.96;66.36;102266.00;5033127;28;20354;-64
2021/08/23 08:33:10;;;;;;;6.53;4.03;;;;;;;21.98;66.35;102264.06;5033006;28;20445;-64
2021/08/23 08:35:36;;;;;;;7.57;3.90;;;;;;;21.99;66.56;102265.75;5032223;28;20026;-65
2021/08/23 08:38:01;;;;;;;6.03;3.72;;;;;;;22.00;66.25;102276.25;5032495;28;20477;-63
2021/08/23 08:40:27;;;;;;;7.00;3.50;;;;;;;22.02;66.14;102276.97;5033388;28;20056;-66
2021/08/23 08:42:54;;;;;;;7.50;3.58;;;;;;;22.03;66.21;102267.19;5031387;28;20033;-65
2021/08/23 08:45:20;;;;;;;7.20;3.47;;;;;;;22.03;66.48;102281.34;5032598;28;20043;-64
2021/08/23 08:47:45;;;;;;;6.22;3.22;;;;;;;22.04;66.19;102274.22;5032087;28;20485;-61
2021/08/23 08:50:15;;;;;;;6.53;3.30;;;;;;;22.04;66.58;102279.53;5031415;28;20071;-64
2021/08/23 08:52:45;;;;;;;6.32;3.50;;;;;;;22.05;66.37;102282.06;5032456;28;20029;-62
2021/08/23 08:55:15;;;;;;;5.82;3.35;;;;;;;22.06;66.54;102285.56;5032269;28;20021;-63
2021/08/23 08:57:41;;;;;;;5.78;3.30;;;;;;;22.00;66.75;102278.03;5031355;28;20179;-62
2021/08/23 09:00:08;;;;;;;6.00;3.30;;;;;;;22.07;66.83;102285.44;5031799;28;20112;-63
2021/08/23 09:02:35;;;;;;;5.68;3.08;;;;;;;22.04;66.36;102287.47;5032135;28;20101;-63
2021/08/23 09:05:16;;;;;;;5.70;3.17;;;;;;;22.07;66.30;102295.22;5030944;28;20029;-61
2021/08/23 09:07:48;;;;;;;5.28;3.08;;;;;;;22.03;66.36;102293.75;5031994;28;20025;-60
2021/08/23 09:10:21;;;;;;;5.38;3.05;;;;;;;22.04;66.26;102304.25;5031890;28;20510;-60
2021/08/23 09:13:02;;;;;;;7.57;3.45;;;;;;;22.03;66.55;102299.91;5033473;28;20029;-61
2021/08/23 09:15:27;;;;;;;5.25;3.42;;;;;;;22.04;66.37;102300.75;5032195;28;20382;-61
2021/08/23 09:18:19;;;;;;;5.53;2.88;;;;;;;22.04;66.57;102301.59;5033463;28;20022;-61
2021/08/23 09:20:55;;;;;;;5.20;3.25;;;;;;;22.04;66.08;102312.22;5035257;28;20033;-60
2021/08/23 09:23:21;;;;;;;5.20;3.08;;;;;;;22.04;66.20;102309.56;5036357;28;20032;-62
2021/08/23 09:25:46;;;;;;;5.43;2.72;;;;;;;22.03;66.18;102310.53;5035602;28;20453;-63
2021/08/23 09:28:11;;;;;;;6.00;3.25;;;;;;;22.01;66.15;102304.47;5036182;28;20053;-63
2021/08/23 09:30:39;;;;;;;5.32;2.65;;;;;;;22.03;66.11;102313.19;5036526;28;20034;-63
2021/08/23 09:33:06;;;;;;;4.78;2.75;;;;;;;22.01;66.19;102315.09;5035226;28;20032;-63
2021/08/23 09:35:36;;;;;;;6.70;3.00;;;;;;;22.04;66.05;102322.00;5035473;28;20017;-64
2021/08/23 09:38:09;;;;;;;4.97;2.63;;;;;;;22.03;66.17;102323.81;5035404;28;20454;-62
2021/08/23 09:40:35;;;;;;;6.78;2.70;;;;;;;22.00;65.95;102313.44;5035540;28;20033;-62
2021/08/23 09:43:09;;;;;;;7.03;3.03;;;;;;;22.03;66.04;102315.84;5035232;28;20032;-63
2021/08/23 09:45:38;;;;;;;6.32;2.95;;;;;;;22.03;65.73;102320.28;5036005;28;20053;-60
2021/08/23 09:48:05;;;;;;;5.35;2.63;;;;;;;22.03;65.89;102321.16;5038111;28;20433;-64
2021/08/23 09:50:41;;;;;;;5.13;2.42;;;;;;;22.02;65.99;102319.47;5039631;28;20469;-65
2021/08/23 09:53:11;;;;;;;5.57;2.40;;;;;;;22.04;65.65;102322.84;5035288;28;20033;-63
2021/08/23 09:55:39;;;;;;;5.60;2.90;;;;;;;22.03;65.64;102333.56;5035691;28;20021;-65
2021/08/23 09:58:06;;;;;;;5.65;2.55;;;;;;;22.01;65.54;102320.41;5035645;28;20029;-65
2021/08/23 10:00:31;;;;;;;5.68;2.58;;;;;;;22.02;65.63;102316.81;5034292;28;20030;-63
2021/08/23 10:02:58;;;;;;;5.00;2.47;;;;;;;22.04;65.60;102333.44;5034700;28;20025;-64
2021/08/23 10:05:24;;;;;;;5.35;2.70;;;;;;;22.06;65.42;102333.34;5035100;28;20026;-65
2021/08/23 10:07:50;;;;;;;4.45;2.42;;;;;;;22.03;65.57;102329.13;5034052;28;20560;-60
2021/08/23 10:10:18;;;;;;;5.80;2.60;;;;;;;22.04;65.48;102330.78;5035392;28;20049;-64
2021/08/23 10:12:44;;;;;;;3.97;2.20;;;;;;;22.06;65.63;102328.03;5035153;28;20025;-64
2021/08/23 10:15:09;;;;;;;7.57;2.40;;;;;;;22.05;65.48;102337.81;5035321;28;20024;-64
2021/08/23 10:17:38;;;;;;;5.20;2.55;;;;;;;22.07;65.41;102329.72;5034813;28;20017;-63
2021/08/23 10:20:14;;;;;;;4.88;2.47;;;;;;;22.07;65.42;102335.03;5034604;28;20128;-65
2021/08/23 10:22:41;;;;;;;7.95;2.60;;;;;;;22.08;65.39;102331.44;5034737;28;20033;-63
2021/08/23 10:25:08;;;;;;;4.18;2.25;;;;;;;22.08;65.47;102326.13;5034376;28;20029;-63
2021/08/23 10:27:36;;;;;;;6.10;3.00;;;;;;;22.08;65.10;102329.63;5034855;28;20061;-64
2021/08/23 10:30:02;;;;;;;5.05;2.60;;;;;;;22.06;65.35;102330.69;5032553;28;20032;-64
2021/08/23 10:32:39;;;;;;;6.32;2.50;;;;;;;22.07;65.28;102337.69;5034296;28;20029;-61
2021/08/23 10:35:25;;;;;;;5.97;2.70;;;;;;;22.06;65.21;102336.84;5033546;28;20114;-63
2021/08/23 10:37:53;;;;;;;5.72;2.97;;;;;;;22.05;65.48;102342.28;5034650;28;20021;-61
2021/08/23 10:40:35;;;;;;;4.15;2.20;;;;;;;22.04;65.43;102337.94;5033946;28;20083;-61
2021/08/23 10:43:12;;;;;;;5.82;2.33;;;;;;;22.04;65.61;102344.06;5032923;28;20032;-61
2021/08/23 10:45:38;;;;;;;4.68;2.65;;;;;;;22.04;65.62;102354.69;5033905;28;20108;-63
2021/08/23 10:48:12;;;;;;;4.82;2.30;;;;;;;22.02;65.73;102347.81;5033106;28;20029;-63
2021/08/23 10:50:38;;;;;;;4.88;2.97;;;;;;;22.03;65.52;102355.66;5032869;28;20103;-62
2021/08/23 10:53:14;;;;;;;5.20;2.85;;;;;;;22.03;65.43;102345.06;5033023;28;20025;-62
2021/08/23 10:55:40;;;;;;;7.47;3.08;;;;;;;22.03;65.44;102347.72;5034018;28;20036;-62
2021/08/23 10:58:12;;;;;;;5.72;2.42;;;;;;;22.04;65.36;102343.22;5034076;28;20071;-64
2021/08/23 11:00:43;;;;;;;4.57;2.63;;;;;;;22.01;65.51;102343.47;5033487;28;20021;-61
2021/08/23 11:03:09;;;;;;;5.30;2.60;;;;;;;22.04;65.46;102346.72;5033205;28;20064;-63
2021/08/23 11:05:36;;;;;;;5.93;2.42;;;;;;;22.05;65.30;102351.09;5034279;28;20414;-64
2021/08/23 11:08:10;;;;;;;8.52;2.42;;;;;;;22.05;65.50;102348.44;5033842;28;20033;-64
2021/08/23 11:10:39;;;;;;;3.95;2.10;;;;;;;22.06;65.25;102347.47;5034209;28;20025;-61
2021/08/23 11:13:18;;;;;;;6.30;2.72;;;;;;;22.07;65.73;102349.16;5034261;28;20045;-64
2021/08/23 11:15:45;;;;;;;4.93;2.45;;;;;;;22.08;65.23;102357.97;5033182;28;20030;-61
2021/08/23 11:18:16;;;;;;;5.78;2.30;;;;;;;22.05;65.57;102347.59;5032382;28;20025;-63
2021/08/23 11:20:46;;;;;;;5.03;2.22;;;;;;;22.07;65.19;102356.28;5033333;28;20033;-62
2021/08/23 11:23:13;;;;;;;5.38;2.38;;;;;;;22.05;64.78;102350.25;5033191;28;20105;-62